createdAt,value
2023-02-05T00:00:18.926Z,101192.94
2023-02-05T00:02:48.248Z,101192.50
2023-02-05T00:05:16.007Z,101192.59
2023-02-05T00:07:43.967Z,101192.53
2023-02-05T00:10:11.584Z,101196.66
2023-02-05T00:12:39.618Z,101197.34
2023-02-05T00:15:07.670Z,101190.72
2023-02-05T00:17:36.739Z,101199.81
2023-02-05T00:20:05.854Z,101193.97
2023-02-05T00:22:33.445Z,101189.38
2023-02-05T00:25:01.120Z,101195.59
2023-02-05T00:27:28.877Z,101196.13
2023-02-05T00:29:56.731Z,101190.59
2023-02-05T00:32:24.303Z,101187.41
2023-02-05T00:34:52.015Z,101188.25
2023-02-05T00:37:20.291Z,101189.88
2023-02-05T00:39:48.099Z,101197.34
2023-02-05T00:42:15.588Z,101202.53
2023-02-05T00:44:43.462Z,101197.66
2023-02-05T00:47:11.061Z,101203.31
2023-02-05T00:49:39.610Z,101194.44
2023-02-05T00:52:07.207Z,101198.09
2023-02-05T00:54:35.293Z,101201.84
2023-02-05T00:57:02.969Z,101196.19
2023-02-05T00:59:30.685Z,101199.81
2023-02-05T01:01:58.421Z,101203.75
2023-02-05T01:04:25.992Z,101202.44
2023-02-05T01:06:53.603Z,101202.94
2023-02-05T01:09:22.580Z,101202.66
2023-02-05T01:11:50.125Z,101208.53
2023-02-05T01:14:17.773Z,101209.63
2023-02-05T01:16:45.664Z,101211.22
2023-02-05T01:19:13.536Z,101208.44
2023-02-05T01:21:41.412Z,101217.13
2023-02-05T01:24:09.181Z,101215.41
2023-02-05T01:26:36.788Z,101218.09
2023-02-05T01:29:04.640Z,101216.50
2023-02-05T01:31:33.584Z,101215.88
2023-02-05T01:34:01.824Z,101214.91
2023-02-05T01:36:29.652Z,101217.97
2023-02-05T01:38:57.227Z,101222.25
2023-02-05T01:41:25.012Z,101226.56
2023-02-05T01:44:12.105Z,101227.91
2023-02-05T01:46:41.439Z,101227.66
2023-02-05T01:49:12.839Z,101226.03
2023-02-05T01:51:40.733Z,101227.00
2023-02-05T01:54:08.985Z,101227.38
2023-02-05T01:56:41.238Z,101221.75
2023-02-05T01:59:17.929Z,101227.78
2023-02-05T02:01:46.927Z,101231.88
2023-02-05T02:04:17.266Z,101227.38
2023-02-05T02:06:45.493Z,101235.78
2023-02-05T02:09:13.549Z,101233.22
2023-02-05T02:11:41.932Z,101231.50
2023-02-05T02:14:11.249Z,101240.44
2023-02-05T02:16:39.011Z,101247.50
2023-02-05T02:19:10.869Z,101234.69
2023-02-05T02:22:13.197Z,101237.53
2023-02-05T02:24:49.487Z,101239.63
2023-02-05T02:27:36.183Z,101246.84
2023-02-05T02:30:19.367Z,101246.97
2023-02-05T02:33:15.073Z,101246.28
2023-02-05T02:35:58.194Z,101242.72
2023-02-05T02:38:34.557Z,101245.34
2023-02-05T02:41:10.534Z,101244.53
2023-02-05T02:43:48.938Z,101241.75
2023-02-05T02:46:44.610Z,101243.16
2023-02-05T02:49:19.171Z,101243.75
2023-02-05T02:51:47.014Z,101247.06
2023-02-05T02:54:15.966Z,101252.88
2023-02-05T02:56:43.735Z,101252.19
2023-02-05T02:59:14.120Z,101253.59
2023-02-05T03:01:52.340Z,101251.78
2023-02-05T03:04:28.016Z,101257.34
2023-02-05T03:06:58.148Z,101251.25
2023-02-05T03:09:32.785Z,101249.13
2023-02-05T03:12:01.952Z,101254.16
2023-02-05T03:14:30.938Z,101254.16
2023-02-05T03:17:00.630Z,101254.59
2023-02-05T03:19:32.487Z,101253.31
2023-02-05T03:22:03.011Z,101249.41
2023-02-05T03:24:31.730Z,101263.06
2023-02-05T03:26:59.746Z,101266.25
2023-02-05T03:29:31.219Z,101265.84
2023-02-05T03:32:21.382Z,101261.66
2023-02-05T03:35:05.252Z,101266.50
2023-02-05T03:37:52.764Z,101269.72
2023-02-05T03:40:51.865Z,101274.41
2023-02-05T03:43:25.710Z,101277.03
2023-02-05T03:46:29.535Z,101278.31
2023-02-05T03:49:14.814Z,101283.66
2023-02-05T03:52:10.086Z,101286.03
2023-02-05T03:54:50.612Z,101292.38
2023-02-05T03:57:33.067Z,101285.53
2023-02-05T04:00:01.391Z,101292.63
2023-02-05T04:02:30.240Z,101292.72
2023-02-05T04:04:58.191Z,101294.53
2023-02-05T04:07:26.052Z,101296.59
2023-02-05T04:09:53.728Z,101300.34
2023-02-05T04:12:22.958Z,101294.88
2023-02-05T04:14:50.539Z,101302.50
2023-02-05T04:17:18.302Z,101304.66
2023-02-05T04:19:46.959Z,101294.88
2023-02-05T04:22:15.880Z,101301.75
2023-02-05T04:24:49.762Z,101306.38
2023-02-05T04:27:18.080Z,101313.25
2023-02-05T04:29:45.654Z,101309.72
2023-02-05T04:32:13.515Z,101309.91
2023-02-05T04:34:41.213Z,101316.78
2023-02-05T04:37:11.666Z,101317.84
2023-02-05T04:39:40.786Z,101326.97
2023-02-05T04:42:08.549Z,101329.03
2023-02-05T04:44:36.333Z,101338.16
2023-02-05T04:47:04.237Z,101331.56
2023-02-05T04:49:33.537Z,101332.97
2023-02-05T04:52:01.147Z,101335.69
2023-02-05T04:54:28.988Z,101334.06
2023-02-05T04:56:56.674Z,101350.19
2023-02-05T04:59:24.397Z,101334.59
2023-02-05T05:01:52.030Z,101337.63
2023-02-05T05:04:19.597Z,101339.44
2023-02-05T05:06:47.363Z,101355.66
2023-02-05T05:09:15.065Z,101350.19
2023-02-05T05:11:43.201Z,101358.97
2023-02-05T05:14:10.852Z,101350.59
2023-02-05T05:16:38.416Z,101358.03
2023-02-05T05:19:06.236Z,101361.31
2023-02-05T05:21:33.810Z,101360.03
2023-02-05T05:24:01.589Z,101360.91
2023-02-05T05:26:30.223Z,101364.00
2023-02-05T05:28:57.890Z,101364.47
2023-02-05T05:31:25.595Z,101372.06
2023-02-05T05:33:53.424Z,101369.63
2023-02-05T05:36:21.012Z,101375.81
2023-02-05T05:38:48.594Z,101371.44
2023-02-05T05:41:43.796Z,101377.34
2023-02-05T05:44:11.459Z,101380.69
2023-02-05T05:46:40.949Z,101377.75
2023-02-05T05:49:08.557Z,101385.19
2023-02-05T05:51:36.108Z,101390.66
2023-02-05T05:54:04.300Z,101391.31
2023-02-05T05:56:31.868Z,101390.81
2023-02-05T05:58:59.387Z,101392.88
2023-02-05T06:01:26.951Z,101390.66
2023-02-05T06:03:54.530Z,101398.38
2023-02-05T06:06:22.100Z,101397.84
2023-02-05T06:08:49.960Z,101397.63
2023-02-05T06:11:17.745Z,101398.28
2023-02-05T06:13:45.624Z,101406.16
2023-02-05T06:16:13.706Z,101411.59
2023-02-05T06:18:42.261Z,101403.13
2023-02-05T06:21:10.903Z,101414.53
2023-02-05T06:23:39.326Z,101417.63
2023-02-05T06:26:07.020Z,101424.28
2023-02-05T06:28:35.064Z,101424.81
2023-02-05T06:31:03.499Z,101426.63
2023-02-05T06:33:31.377Z,101425.34
2023-02-05T06:35:58.945Z,101437.00
2023-02-05T06:38:26.733Z,101437.47
2023-02-05T06:40:54.405Z,101444.44
2023-02-05T06:43:22.129Z,101440.19
2023-02-05T06:45:49.691Z,101441.25
2023-02-05T06:48:18.346Z,101447.91
2023-02-05T06:50:46.393Z,101439.88
2023-02-05T06:53:14.172Z,101444.81
2023-02-05T06:55:41.754Z,101443.28
2023-02-05T06:58:09.421Z,101443.28
2023-02-05T07:00:37.233Z,101445.97
2023-02-05T07:03:05.008Z,101447.28
2023-02-05T07:05:35.004Z,101452.00
2023-02-05T07:08:04.317Z,101442.41
2023-02-05T07:10:32.323Z,101446.41
2023-02-05T07:12:59.959Z,101456.16
2023-02-05T07:15:27.460Z,101454.31
2023-02-05T07:17:55.500Z,101455.84
2023-02-05T07:20:23.529Z,101458.03
2023-02-05T07:22:51.143Z,101462.41
2023-02-05T07:25:18.729Z,101461.13
2023-02-05T07:27:46.561Z,101462.22
2023-02-05T07:30:15.093Z,101465.66
2023-02-05T07:32:42.691Z,101470.38
2023-02-05T07:35:10.230Z,101460.03
2023-02-05T07:37:39.601Z,101461.06
2023-02-05T07:40:08.031Z,101464.00
2023-02-05T07:42:35.841Z,101457.66
2023-02-05T07:45:04.979Z,101460.78
2023-02-05T07:47:32.845Z,101468.03
2023-02-05T07:50:00.565Z,101471.22
2023-02-05T07:52:28.455Z,101470.63
2023-02-05T07:54:55.975Z,101475.94
2023-02-05T07:57:23.897Z,101477.53
2023-02-05T07:59:52.656Z,101475.03
2023-02-05T08:02:20.729Z,101485.84
2023-02-05T08:04:48.271Z,101477.59
2023-02-05T08:07:16.167Z,101478.72
2023-02-05T08:09:47.686Z,101485.28
2023-02-05T08:12:15.791Z,101497.66
2023-02-05T08:14:43.545Z,101486.84
2023-02-05T08:17:11.138Z,101488.63
2023-02-05T08:19:39.066Z,101490.88
2023-02-05T08:22:06.845Z,101493.53
2023-02-05T08:24:34.412Z,101497.34
2023-02-05T08:27:02.327Z,101493.03
2023-02-05T08:29:30.189Z,101508.41
2023-02-05T08:31:57.944Z,101506.22
2023-02-05T08:34:25.581Z,101496.19
2023-02-05T08:36:53.280Z,101505.66
2023-02-05T08:39:20.987Z,101522.53
2023-02-05T08:41:48.679Z,101515.53
2023-02-05T08:44:16.278Z,101514.88
2023-02-05T08:46:50.127Z,101520.22
2023-02-05T08:49:18.536Z,101516.97
2023-02-05T08:51:46.467Z,101534.94
2023-02-05T08:54:15.374Z,101526.50
2023-02-05T08:56:43.882Z,101524.22
2023-02-05T08:59:12.373Z,101524.75
2023-02-05T09:01:43.244Z,101526.00
2023-02-05T09:04:17.943Z,101520.50
2023-02-05T09:06:45.551Z,101521.31
2023-02-05T09:09:13.486Z,101516.97
2023-02-05T09:11:41.743Z,101528.69
2023-02-05T09:14:10.026Z,101519.56
2023-02-05T09:16:38.223Z,101518.88
2023-02-05T09:19:05.955Z,101525.91
2023-02-05T09:21:35.672Z,101532.66
2023-02-05T09:24:03.963Z,101525.59
2023-02-05T09:26:31.614Z,101532.09
2023-02-05T09:28:59.481Z,101530.34
2023-02-05T09:31:27.180Z,101531.00
2023-02-05T09:33:56.002Z,101548.19
2023-02-05T09:36:23.839Z,101543.59
2023-02-05T09:39:02.001Z,101553.44
2023-02-05T09:41:37.284Z,101548.53
2023-02-05T09:44:25.143Z,101542.50
2023-02-05T09:46:52.672Z,101546.41
2023-02-05T09:49:38.691Z,101543.44
2023-02-05T09:52:21.894Z,101539.59
2023-02-05T09:54:52.446Z,101537.63
2023-02-05T09:57:49.358Z,101554.03
2023-02-05T10:00:29.503Z,101547.75
2023-02-05T10:02:59.097Z,101546.66
2023-02-05T10:05:26.923Z,101540.47
2023-02-05T10:08:07.127Z,101532.13
2023-02-05T10:10:39.659Z,101544.97
2023-02-05T10:13:27.837Z,101541.34
2023-02-05T10:16:04.750Z,101557.22
2023-02-05T10:19:01.104Z,101556.06
2023-02-05T10:21:52.069Z,101545.63
2023-02-05T10:24:38.508Z,101546.25
2023-02-05T10:27:13.950Z,101544.22
2023-02-05T10:29:53.957Z,101547.78
2023-02-05T10:32:25.868Z,101549.16
2023-02-05T10:35:01.604Z,101542.06
2023-02-05T10:37:45.133Z,101554.09
2023-02-05T10:40:18.404Z,101545.19
2023-02-05T10:43:27.309Z,101543.22
2023-02-05T10:45:54.912Z,101547.00
2023-02-05T10:48:24.472Z,101545.09
2023-02-05T10:51:01.408Z,101538.84
2023-02-05T10:53:29.416Z,101544.78
2023-02-05T10:55:57.833Z,101547.78
2023-02-05T10:58:39.213Z,101548.41
2023-02-05T11:01:27.711Z,101536.03
2023-02-05T11:04:00.311Z,101527.63
2023-02-05T11:06:29.837Z,101533.66
2023-02-05T11:08:57.750Z,101527.63
2023-02-05T11:11:28.511Z,101535.41
2023-02-05T11:14:00.893Z,101534.16
2023-02-05T11:16:48.756Z,101534.84
2023-02-05T11:19:23.239Z,101546.88
2023-02-05T11:21:55.779Z,101551.94
2023-02-05T11:24:28.733Z,101548.50
2023-02-05T11:27:18.135Z,101554.72
2023-02-05T11:29:45.897Z,101556.72
2023-02-05T11:32:38.089Z,101542.38
2023-02-05T11:35:25.371Z,101536.84
2023-02-05T11:38:10.407Z,101542.69
2023-02-05T11:40:38.212Z,101547.34
2023-02-05T11:43:25.134Z,101542.22
2023-02-05T11:45:53.120Z,101549.38
2023-02-05T11:48:44.962Z,101543.13
2023-02-05T11:51:15.390Z,101568.41
2023-02-05T11:53:51.003Z,101557.88
2023-02-05T11:56:22.820Z,101554.84
2023-02-05T11:59:05.163Z,101558.78
2023-02-05T12:01:34.229Z,101557.81
2023-02-05T12:04:17.194Z,101556.56
2023-02-05T12:06:53.626Z,101556.63
2023-02-05T12:09:23.366Z,101559.88
2023-02-05T12:12:11.849Z,101558.19
2023-02-05T12:15:10.280Z,101552.31
2023-02-05T12:17:50.865Z,101554.63
2023-02-05T12:20:23.064Z,101550.16
2023-02-05T12:23:23.731Z,101555.50
2023-02-05T12:25:58.515Z,101561.84
2023-02-05T12:28:42.766Z,101557.75
2023-02-05T12:31:19.938Z,101558.09
2023-02-05T12:34:02.517Z,101561.22
2023-02-05T12:36:46.280Z,101562.94
2023-02-05T12:39:33.690Z,101570.03
2023-02-05T12:42:26.498Z,101559.59
2023-02-05T12:44:57.743Z,101570.06
2023-02-05T12:47:38.577Z,101566.00
2023-02-05T12:50:19.403Z,101552.44
2023-02-05T12:53:24.569Z,101560.28
2023-02-05T12:56:11.092Z,101553.88
2023-02-05T12:59:10.764Z,101566.50
2023-02-05T13:02:11.248Z,101566.19
2023-02-05T13:04:40.700Z,101561.00
2023-02-05T13:07:18.345Z,101562.88
2023-02-05T13:09:49.271Z,101573.78
2023-02-05T13:12:19.063Z,101564.44
2023-02-05T13:15:00.574Z,101575.66
2023-02-05T13:17:29.541Z,101577.63
2023-02-05T13:19:58.470Z,101574.09
2023-02-05T13:22:45.046Z,101572.91
2023-02-05T13:25:59.583Z,101579.16
2023-02-05T13:28:42.781Z,101575.41
2023-02-05T13:31:32.019Z,101582.63
2023-02-05T13:34:07.009Z,101583.47
2023-02-05T13:36:57.634Z,101582.81
2023-02-05T13:39:47.531Z,101578.19
2023-02-05T13:42:35.845Z,101581.09
2023-02-05T13:45:37.956Z,101581.06
2023-02-05T13:48:10.410Z,101579.97
2023-02-05T13:50:41.622Z,101583.31
2023-02-05T13:53:44.064Z,101588.13
2023-02-05T13:56:24.557Z,101580.13
2023-02-05T13:58:56.706Z,101582.66
2023-02-05T14:01:29.844Z,101594.22
2023-02-05T14:04:07.299Z,101588.91
2023-02-05T14:06:39.106Z,101595.56
2023-02-05T14:09:25.149Z,101594.81
2023-02-05T14:11:57.610Z,101591.78
2023-02-05T14:14:29.189Z,101591.47
2023-02-05T14:16:59.256Z,101591.19
2023-02-05T14:19:46.253Z,101596.72
2023-02-05T14:22:35.338Z,101591.06
2023-02-05T14:25:03.021Z,101594.59
2023-02-05T14:27:31.442Z,101594.66
2023-02-05T14:29:59.719Z,101593.09
2023-02-05T14:32:27.423Z,101591.63
2023-02-05T14:35:02.300Z,101580.38
2023-02-05T14:37:40.903Z,101581.50
2023-02-05T14:40:38.004Z,101579.81
2023-02-05T14:43:22.768Z,101581.75
2023-02-05T14:45:51.428Z,101580.44
2023-02-05T14:48:27.165Z,101588.91
2023-02-05T14:51:31.664Z,101593.53
2023-02-05T14:54:07.199Z,101592.84
2023-02-05T14:56:37.618Z,101590.00
2023-02-05T14:59:17.877Z,101589.78
2023-02-05T15:01:46.838Z,101594.22
2023-02-05T15:04:40.749Z,101596.59
2023-02-05T15:07:14.478Z,101599.16
2023-02-05T15:09:46.302Z,101601.59
2023-02-05T15:12:34.334Z,101604.84
2023-02-05T15:15:27.883Z,101611.72
2023-02-05T15:17:58.243Z,101614.25
2023-02-05T15:20:27.899Z,101619.81
2023-02-05T15:23:05.382Z,101615.19
2023-02-05T15:25:42.681Z,101624.41
2023-02-05T15:28:20.579Z,101633.19
2023-02-05T15:31:05.854Z,101629.56
2023-02-05T15:33:40.250Z,101644.31
2023-02-05T15:36:13.293Z,101637.59
2023-02-05T15:39:02.846Z,101640.91
2023-02-05T15:41:31.027Z,101639.34
2023-02-05T15:44:02.710Z,101641.34
2023-02-05T15:46:32.784Z,101647.78
2023-02-05T15:49:00.474Z,101655.44
2023-02-05T15:51:34.508Z,101651.81
2023-02-05T15:54:03.390Z,101655.34
2023-02-05T15:56:39.558Z,101656.13
2023-02-05T15:59:10.271Z,101657.72
2023-02-05T16:01:49.448Z,101660.72
2023-02-05T16:04:23.058Z,101664.94
2023-02-05T16:06:55.271Z,101664.25
2023-02-05T16:09:25.190Z,101659.19
2023-02-05T16:11:54.223Z,101668.84
2023-02-05T16:14:28.808Z,101670.38
2023-02-05T16:17:07.923Z,101677.47
2023-02-05T16:19:46.430Z,101674.31
2023-02-05T16:22:36.209Z,101678.22
2023-02-05T16:25:07.325Z,101679.09
2023-02-05T16:27:36.087Z,101674.97
2023-02-05T16:30:08.123Z,101672.97
2023-02-05T16:32:40.008Z,101682.06
2023-02-05T16:35:12.986Z,101686.84
2023-02-05T16:37:40.699Z,101678.59
2023-02-05T16:40:09.843Z,101688.38
2023-02-05T16:42:43.360Z,101674.63
2023-02-05T16:45:11.056Z,101690.75
2023-02-05T16:47:39.283Z,101698.41
2023-02-05T16:50:37.484Z,101686.63
2023-02-05T16:53:16.915Z,101691.59
2023-02-05T16:55:44.587Z,101687.69
2023-02-05T16:58:22.347Z,101690.13
2023-02-05T17:01:00.952Z,101694.03
2023-02-05T17:03:31.279Z,101697.75
2023-02-05T17:06:00.709Z,101692.47
2023-02-05T17:08:33.535Z,101698.56
2023-02-05T17:11:06.785Z,101699.09
2023-02-05T17:13:42.571Z,101699.34
2023-02-05T17:16:29.971Z,101704.53
2023-02-05T17:19:25.482Z,101714.19
2023-02-05T17:22:27.721Z,101720.59
2023-02-05T17:24:55.488Z,101703.59
2023-02-05T17:27:30.643Z,101711.56
2023-02-05T17:29:58.922Z,101696.28
2023-02-05T17:32:26.565Z,101713.06
2023-02-05T17:34:54.539Z,101719.34
2023-02-05T17:37:22.117Z,101724.50
2023-02-05T17:39:51.696Z,101721.88
2023-02-05T17:42:23.959Z,101710.75
2023-02-05T17:44:51.878Z,101714.19
2023-02-05T17:47:20.278Z,101724.50
2023-02-05T17:49:48.015Z,101731.97
2023-02-05T17:52:15.828Z,101731.28
2023-02-05T17:54:46.338Z,101729.38
2023-02-05T17:57:21.382Z,101733.06
2023-02-05T17:59:49.626Z,101729.06
2023-02-05T18:02:17.581Z,101730.88
2023-02-05T18:04:46.493Z,101740.53
2023-02-05T18:07:40.149Z,101737.66
2023-02-05T18:10:12.834Z,101730.03
2023-02-05T18:12:40.490Z,101725.19
2023-02-05T18:15:08.744Z,101727.75
2023-02-05T18:17:37.544Z,101731.63
2023-02-05T18:20:06.045Z,101732.19
2023-02-05T18:22:34.443Z,101731.66
2023-02-05T18:25:02.378Z,101748.59
2023-02-05T18:27:30.971Z,101747.81
2023-02-05T18:29:58.655Z,101760.50
2023-02-05T18:32:26.408Z,101758.38
2023-02-05T18:34:54.202Z,101756.03
2023-02-05T18:37:22.419Z,101751.28
2023-02-05T18:39:50.960Z,101752.50
2023-02-05T18:42:19.768Z,101759.31
2023-02-05T18:44:51.238Z,101755.91
2023-02-05T18:47:27.640Z,101765.44
2023-02-05T18:49:55.305Z,101759.66
2023-02-05T18:52:26.700Z,101758.00
2023-02-05T18:54:54.369Z,101760.22
2023-02-05T18:57:22.327Z,101766.16
2023-02-05T18:59:50.319Z,101755.34
2023-02-05T19:02:17.916Z,101755.59
2023-02-05T19:04:45.822Z,101764.50
2023-02-05T19:07:13.617Z,101762.31
2023-02-05T19:09:41.210Z,101769.09
2023-02-05T19:12:08.703Z,101774.00
2023-02-05T19:14:36.826Z,101774.44
2023-02-05T19:17:07.245Z,101771.50
2023-02-05T19:19:35.328Z,101778.34
2023-02-05T19:22:05.457Z,101779.53
2023-02-05T19:24:33.752Z,101779.53
2023-02-05T19:27:01.908Z,101779.56
2023-02-05T19:29:29.947Z,101780.34
2023-02-05T19:31:58.766Z,101770.31
2023-02-05T19:34:27.925Z,101777.91
2023-02-05T19:36:58.583Z,101773.94
2023-02-05T19:39:26.394Z,101781.81
2023-02-05T19:41:54.134Z,101789.25
2023-02-05T19:44:22.868Z,101787.94
2023-02-05T19:46:54.185Z,101797.72
2023-02-05T19:49:22.082Z,101794.94
2023-02-05T19:51:55.250Z,101799.94
2023-02-05T19:54:23.021Z,101803.28
2023-02-05T19:56:51.198Z,101819.19
2023-02-05T19:59:19.037Z,101819.56
2023-02-05T20:01:46.788Z,101806.69
2023-02-05T20:04:17.207Z,101816.19
2023-02-05T20:06:46.389Z,101820.94
2023-02-05T20:09:15.662Z,101825.53
2023-02-05T20:11:45.023Z,101821.59
2023-02-05T20:14:12.630Z,101824.56
2023-02-05T20:16:40.603Z,101826.91
2023-02-05T20:19:10.228Z,101829.50
2023-02-05T20:21:38.713Z,101825.38
2023-02-05T20:24:07.575Z,101827.31
2023-02-05T20:26:36.060Z,101828.63
2023-02-05T20:29:22.868Z,101833.81
2023-02-05T20:31:51.983Z,101835.28
2023-02-05T20:34:23.820Z,101841.59
2023-02-05T20:36:53.891Z,101842.97
2023-02-05T20:39:22.923Z,101850.16
2023-02-05T20:41:51.491Z,101846.97
2023-02-05T20:44:19.238Z,101846.69
2023-02-05T20:46:47.071Z,101846.16
2023-02-05T20:49:15.808Z,101853.44
2023-02-05T20:51:43.564Z,101856.72
2023-02-05T20:54:11.485Z,101862.59
2023-02-05T20:56:39.402Z,101869.44
2023-02-05T20:59:07.730Z,101863.63
2023-02-05T21:01:36.404Z,101868.75
2023-02-05T21:04:04.626Z,101865.72
2023-02-05T21:06:34.196Z,101877.91
2023-02-05T21:09:01.986Z,101874.19
2023-02-05T21:11:30.163Z,101878.84
2023-02-05T21:13:58.812Z,101875.47
2023-02-05T21:16:27.595Z,101884.91
2023-02-05T21:18:55.344Z,101885.16
2023-02-05T21:21:27.737Z,101883.06
2023-02-05T21:23:57.084Z,101888.88
2023-02-05T21:26:29.440Z,101888.88
2023-02-05T21:29:01.626Z,101896.56
2023-02-05T21:31:36.157Z,101898.03
2023-02-05T21:34:04.654Z,101886.28
2023-02-05T21:36:33.550Z,101901.16
2023-02-05T21:39:01.179Z,101904.94
2023-02-05T21:41:28.942Z,101906.25
2023-02-05T21:43:59.112Z,101908.00
2023-02-05T21:46:29.420Z,101898.72
2023-02-05T21:48:58.229Z,101907.38
2023-02-05T21:51:28.079Z,101909.88
2023-02-05T21:53:58.777Z,101914.28
2023-02-05T21:56:29.353Z,101913.50
2023-02-05T21:58:57.223Z,101913.16
2023-02-05T22:01:26.810Z,101905.91
2023-02-05T22:04:00.709Z,101915.75
2023-02-05T22:06:30.505Z,101913.34
2023-02-05T22:08:59.296Z,101908.00
2023-02-05T22:11:27.016Z,101924.22
2023-02-05T22:13:55.116Z,101920.34
2023-02-05T22:16:24.425Z,101922.16
2023-02-05T22:18:53.269Z,101922.66
2023-02-05T22:21:23.121Z,101920.34
2023-02-05T22:23:52.036Z,101925.44
2023-02-05T22:26:24.062Z,101920.69
2023-02-05T22:28:52.323Z,101921.63
2023-02-05T22:31:20.533Z,101919.28
2023-02-05T22:33:49.307Z,101928.53
2023-02-05T22:36:18.787Z,101923.34
2023-02-05T22:38:46.571Z,101928.84
2023-02-05T22:41:16.809Z,101935.38
2023-02-05T22:43:44.747Z,101927.53
2023-02-05T22:46:14.155Z,101933.56
2023-02-05T22:48:43.136Z,101938.94
2023-02-05T22:51:14.008Z,101936.41
2023-02-05T22:53:41.897Z,101937.47
2023-02-05T22:56:12.729Z,101931.03
2023-02-05T22:58:41.650Z,101937.50
2023-02-05T23:01:26.025Z,101932.75
2023-02-05T23:03:53.791Z,101941.72
2023-02-05T23:06:23.571Z,101939.03
2023-02-05T23:08:59.156Z,101940.78
2023-02-05T23:11:27.637Z,101944.97
2023-02-05T23:13:56.301Z,101944.31
2023-02-05T23:16:26.118Z,101957.75
2023-02-05T23:18:56.299Z,101956.03
2023-02-05T23:21:24.934Z,101955.94
2023-02-05T23:23:52.994Z,101957.44
2023-02-05T23:26:22.300Z,101962.28
2023-02-05T23:28:49.951Z,101973.16
2023-02-05T23:31:17.829Z,101965.88
2023-02-05T23:33:45.474Z,101970.91
2023-02-05T23:36:13.247Z,101963.25
2023-02-05T23:38:40.904Z,101961.91
2023-02-05T23:41:08.672Z,101969.44
2023-02-05T23:43:36.922Z,101963.47
2023-02-05T23:46:05.367Z,101973.66
2023-02-05T23:48:33.381Z,101969.63
2023-02-05T23:51:01.071Z,101978.91
2023-02-05T23:53:28.654Z,101975.47
2023-02-05T23:55:56.346Z,101979.53
2023-02-05T23:58:26.147Z,101987.03
